sensor_id;sensor_type;location;lat;lon;timestamp;P1;durP1;ratioP1;P2;durP2;ratioP2
44486;SDS011;30191;50.908;6.962;2024-02-26T00:01:03;2.20;;;0.90;;
44486;SDS011;30191;50.908;6.962;2024-02-26T00:03:38;1.00;;;0.80;;
44486;SDS011;30191;50.908;6.962;2024-02-26T00:08:43;1.40;;;0.80;;
44486;SDS011;30191;50.908;6.962;2024-02-26T00:11:11;1.75;;;0.80;;
44486;SDS011;30191;50.908;6.962;2024-02-26T00:13:39;1.95;;;0.90;;
44486;SDS011;30191;50.908;6.962;2024-02-26T00:16:07;2.33;;;1.10;;
44486;SDS011;30191;50.908;6.962;2024-02-26T00:18:35;4.15;;;1.00;;
44486;SDS011;30191;50.908;6.962;2024-02-26T00:21:01;1.52;;;1.00;;
44486;SDS011;30191;50.908;6.962;2024-02-26T00:23:32;1.15;;;1.00;;
44486;SDS011;30191;50.908;6.962;2024-02-26T00:26:11;2.00;;;1.10;;
44486;SDS011;30191;50.908;6.962;2024-02-26T00:28:46;2.97;;;1.10;;
44486;SDS011;30191;50.908;6.962;2024-02-26T00:31:14;1.48;;;0.95;;
44486;SDS011;30191;50.908;6.962;2024-02-26T00:33:40;1.17;;;0.80;;
44486;SDS011;30191;50.908;6.962;2024-02-26T00:36:06;1.60;;;0.77;;
44486;SDS011;30191;50.908;6.962;2024-02-26T00:38:44;1.63;;;0.60;;
44486;SDS011;30191;50.908;6.962;2024-02-26T00:41:18;2.85;;;0.80;;
44486;SDS011;30191;50.908;6.962;2024-02-26T00:46:17;1.35;;;0.57;;
44486;SDS011;30191;50.908;6.962;2024-02-26T00:48:52;1.42;;;0.75;;
44486;SDS011;30191;50.908;6.962;2024-02-26T00:51:20;1.35;;;0.75;;
44486;SDS011;30191;50.908;6.962;2024-02-26T00:53:49;0.93;;;0.68;;
44486;SDS011;30191;50.908;6.962;2024-02-26T00:56:21;1.08;;;0.65;;
44486;SDS011;30191;50.908;6.962;2024-02-26T00:58:49;1.30;;;0.60;;
44486;SDS011;30191;50.908;6.962;2024-02-26T01:01:20;0.80;;;0.60;;
44486;SDS011;30191;50.908;6.962;2024-02-26T01:03:48;0.88;;;0.70;;
44486;SDS011;30191;50.908;6.962;2024-02-26T01:06:27;1.00;;;0.55;;
44486;SDS011;30191;50.908;6.962;2024-02-26T01:08:57;0.50;;;0.40;;
44486;SDS011;30191;50.908;6.962;2024-02-26T01:11:23;1.02;;;0.70;;
44486;SDS011;30191;50.908;6.962;2024-02-26T01:13:49;1.88;;;0.63;;
44486;SDS011;30191;50.908;6.962;2024-02-26T01:16:35;0.98;;;0.50;;
44486;SDS011;30191;50.908;6.962;2024-02-26T01:19:09;1.23;;;0.50;;
44486;SDS011;30191;50.908;6.962;2024-02-26T01:21:50;0.90;;;0.50;;
44486;SDS011;30191;50.908;6.962;2024-02-26T01:24:18;1.10;;;0.60;;
44486;SDS011;30191;50.908;6.962;2024-02-26T01:27:10;0.73;;;0.60;;
44486;SDS011;30191;50.908;6.962;2024-02-26T01:29:44;0.97;;;0.60;;
44486;SDS011;30191;50.908;6.962;2024-02-26T01:32:13;0.90;;;0.50;;
44486;SDS011;30191;50.908;6.962;2024-02-26T01:34:41;1.25;;;0.77;;
44486;SDS011;30191;50.908;6.962;2024-02-26T01:37:18;2.22;;;0.60;;
44486;SDS011;30191;50.908;6.962;2024-02-26T01:39:46;0.85;;;0.40;;
44486;SDS011;30191;50.908;6.962;2024-02-26T01:42:17;0.73;;;0.47;;
44486;SDS011;30191;50.908;6.962;2024-02-26T01:44:48;0.57;;;0.32;;
44486;SDS011;30191;50.908;6.962;2024-02-26T01:47:20;2.55;;;0.60;;
44486;SDS011;30191;50.908;6.962;2024-02-26T01:49:45;1.48;;;0.63;;
44486;SDS011;30191;50.908;6.962;2024-02-26T01:52:21;2.75;;;0.70;;
44486;SDS011;30191;50.908;6.962;2024-02-26T01:54:47;1.80;;;0.50;;
44486;SDS011;30191;50.908;6.962;2024-02-26T01:57:15;1.50;;;0.80;;
44486;SDS011;30191;50.908;6.962;2024-02-26T01:59:41;1.13;;;0.57;;
44486;SDS011;30191;50.908;6.962;2024-02-26T02:02:18;1.00;;;0.50;;
44486;SDS011;30191;50.908;6.962;2024-02-26T02:04:49;0.80;;;0.50;;
44486;SDS011;30191;50.908;6.962;2024-02-26T02:07:27;1.00;;;0.43;;
44486;SDS011;30191;50.908;6.962;2024-02-26T02:09:59;1.52;;;0.50;;
44486;SDS011;30191;50.908;6.962;2024-02-26T02:12:47;0.77;;;0.50;;
44486;SDS011;30191;50.908;6.962;2024-02-26T02:15:26;1.45;;;0.50;;
44486;SDS011;30191;50.908;6.962;2024-02-26T02:18:00;0.63;;;0.40;;
44486;SDS011;30191;50.908;6.962;2024-02-26T02:20:36;0.82;;;0.45;;
44486;SDS011;30191;50.908;6.962;2024-02-26T02:23:02;4.75;;;0.60;;
44486;SDS011;30191;50.908;6.962;2024-02-26T02:25:37;0.55;;;0.50;;
44486;SDS011;30191;50.908;6.962;2024-02-26T02:28:07;0.88;;;0.43;;
44486;SDS011;30191;50.908;6.962;2024-02-26T02:30:37;0.70;;;0.40;;
44486;SDS011;30191;50.908;6.962;2024-02-26T02:33:13;1.17;;;0.60;;
44486;SDS011;30191;50.908;6.962;2024-02-26T02:35:58;0.77;;;0.50;;
44486;SDS011;30191;50.908;6.962;2024-02-26T02:38:27;0.70;;;0.43;;
44486;SDS011;30191;50.908;6.962;2024-02-26T02:40:57;1.02;;;0.40;;
44486;SDS011;30191;50.908;6.962;2024-02-26T02:43:31;0.75;;;0.40;;
44486;SDS011;30191;50.908;6.962;2024-02-26T02:46:02;1.33;;;0.60;;
44486;SDS011;30191;50.908;6.962;2024-02-26T02:48:30;0.77;;;0.30;;
44486;SDS011;30191;50.908;6.962;2024-02-26T02:50:56;1.25;;;0.40;;
44486;SDS011;30191;50.908;6.962;2024-02-26T02:53:27;1.27;;;0.57;;
44486;SDS011;30191;50.908;6.962;2024-02-26T02:56:00;0.95;;;0.60;;
44486;SDS011;30191;50.908;6.962;2024-02-26T02:58:30;1.20;;;0.60;;
44486;SDS011;30191;50.908;6.962;2024-02-26T03:00:58;1.15;;;0.60;;
44486;SDS011;30191;50.908;6.962;2024-02-26T03:03:36;1.20;;;0.50;;
44486;SDS011;30191;50.908;6.962;2024-02-26T03:06:26;2.25;;;0.50;;
44486;SDS011;30191;50.908;6.962;2024-02-26T03:08:57;1.08;;;0.60;;
44486;SDS011;30191;50.908;6.962;2024-02-26T03:11:31;1.17;;;0.50;;
44486;SDS011;30191;50.908;6.962;2024-02-26T03:14:01;0.65;;;0.45;;
44486;SDS011;30191;50.908;6.962;2024-02-26T03:16:32;0.63;;;0.40;;
44486;SDS011;30191;50.908;6.962;2024-02-26T03:19:01;1.02;;;0.57;;
44486;SDS011;30191;50.908;6.962;2024-02-26T03:21:31;1.70;;;0.60;;
44486;SDS011;30191;50.908;6.962;2024-02-26T03:24:09;0.82;;;0.60;;
44486;SDS011;30191;50.908;6.962;2024-02-26T03:26:40;1.63;;;0.50;;
44486;SDS011;30191;50.908;6.962;2024-02-26T03:29:08;1.17;;;0.60;;
44486;SDS011;30191;50.908;6.962;2024-02-26T03:31:50;1.10;;;0.60;;
44486;SDS011;30191;50.908;6.962;2024-02-26T03:34:18;1.00;;;0.55;;
44486;SDS011;30191;50.908;6.962;2024-02-26T03:36:58;0.60;;;0.38;;
44486;SDS011;30191;50.908;6.962;2024-02-26T03:39:36;0.93;;;0.50;;
44486;SDS011;30191;50.908;6.962;2024-02-26T03:42:02;0.52;;;0.50;;
44486;SDS011;30191;50.908;6.962;2024-02-26T03:44:31;0.55;;;0.45;;
44486;SDS011;30191;50.908;6.962;2024-02-26T03:47:02;1.20;;;0.50;;
44486;SDS011;30191;50.908;6.962;2024-02-26T03:49:31;1.52;;;0.60;;
44486;SDS011;30191;50.908;6.962;2024-02-26T03:52:02;0.82;;;0.55;;
44486;SDS011;30191;50.908;6.962;2024-02-26T03:54:36;1.00;;;0.50;;
44486;SDS011;30191;50.908;6.962;2024-02-26T03:57:07;0.95;;;0.50;;
44486;SDS011;30191;50.908;6.962;2024-02-26T03:59:33;1.65;;;0.60;;
44486;SDS011;30191;50.908;6.962;2024-02-26T04:02:01;0.70;;;0.43;;
44486;SDS011;30191;50.908;6.962;2024-02-26T04:04:34;1.77;;;0.52;;
44486;SDS011;30191;50.908;6.962;2024-02-26T04:07:02;1.48;;;0.50;;
44486;SDS011;30191;50.908;6.962;2024-02-26T04:09:41;2.70;;;0.52;;
44486;SDS011;30191;50.908;6.962;2024-02-26T04:12:14;1.65;;;0.52;;
44486;SDS011;30191;50.908;6.962;2024-02-26T04:17:18;1.52;;;0.40;;
44486;SDS011;30191;50.908;6.962;2024-02-26T04:19:47;1.23;;;0.55;;
44486;SDS011;30191;50.908;6.962;2024-02-26T04:22:18;1.52;;;0.70;;
44486;SDS011;30191;50.908;6.962;2024-02-26T04:24:53;3.92;;;0.70;;
44486;SDS011;30191;50.908;6.962;2024-02-26T04:27:19;1.85;;;0.60;;
44486;SDS011;30191;50.908;6.962;2024-02-26T04:29:48;2.25;;;0.70;;
44486;SDS011;30191;50.908;6.962;2024-02-26T04:32:13;1.33;;;0.68;;
44486;SDS011;30191;50.908;6.962;2024-02-26T04:34:51;1.15;;;0.70;;
44486;SDS011;30191;50.908;6.962;2024-02-26T04:37:20;2.63;;;0.60;;
44486;SDS011;30191;50.908;6.962;2024-02-26T04:39:48;0.98;;;0.60;;
44486;SDS011;30191;50.908;6.962;2024-02-26T04:45:02;1.77;;;0.80;;
44486;SDS011;30191;50.908;6.962;2024-02-26T04:47:39;2.38;;;0.70;;
44486;SDS011;30191;50.908;6.962;2024-02-26T04:50:26;0.82;;;0.55;;
44486;SDS011;30191;50.908;6.962;2024-02-26T04:53:00;3.22;;;0.63;;
44486;SDS011;30191;50.908;6.962;2024-02-26T04:55:47;2.42;;;0.80;;
44486;SDS011;30191;50.908;6.962;2024-02-26T04:58:13;1.40;;;0.75;;
44486;SDS011;30191;50.908;6.962;2024-02-26T05:00:46;3.17;;;0.82;;
44486;SDS011;30191;50.908;6.962;2024-02-26T05:03:12;1.30;;;0.70;;
44486;SDS011;30191;50.908;6.962;2024-02-26T05:05:45;1.50;;;0.70;;
44486;SDS011;30191;50.908;6.962;2024-02-26T05:08:13;1.90;;;0.70;;
44486;SDS011;30191;50.908;6.962;2024-02-26T05:10:47;2.83;;;0.60;;
44486;SDS011;30191;50.908;6.962;2024-02-26T05:13:21;1.08;;;0.68;;
44486;SDS011;30191;50.908;6.962;2024-02-26T05:15:47;1.75;;;0.60;;
44486;SDS011;30191;50.908;6.962;2024-02-26T05:18:29;1.20;;;0.70;;
44486;SDS011;30191;50.908;6.962;2024-02-26T05:21:00;2.05;;;0.75;;
44486;SDS011;30191;50.908;6.962;2024-02-26T05:23:28;1.63;;;0.60;;
44486;SDS011;30191;50.908;6.962;2024-02-26T05:25:59;1.52;;;0.68;;
44486;SDS011;30191;50.908;6.962;2024-02-26T05:28:24;1.33;;;0.60;;
44486;SDS011;30191;50.908;6.962;2024-02-26T05:30:50;2.72;;;0.77;;
44486;SDS011;30191;50.908;6.962;2024-02-26T05:33:19;0.90;;;0.65;;
44486;SDS011;30191;50.908;6.962;2024-02-26T05:35:52;1.55;;;0.60;;
44486;SDS011;30191;50.908;6.962;2024-02-26T05:41:21;1.58;;;0.90;;
44486;SDS011;30191;50.908;6.962;2024-02-26T05:43:51;2.55;;;0.70;;
44486;SDS011;30191;50.908;6.962;2024-02-26T05:46:20;2.80;;;0.75;;
44486;SDS011;30191;50.908;6.962;2024-02-26T05:48:51;2.45;;;0.90;;
44486;SDS011;30191;50.908;6.962;2024-02-26T05:51:22;1.10;;;0.70;;
44486;SDS011;30191;50.908;6.962;2024-02-26T05:53:58;1.85;;;0.70;;
44486;SDS011;30191;50.908;6.962;2024-02-26T05:56:35;1.05;;;0.65;;
44486;SDS011;30191;50.908;6.962;2024-02-26T05:59:07;0.93;;;0.60;;
44486;SDS011;30191;50.908;6.962;2024-02-26T06:01:33;1.42;;;0.70;;
44486;SDS011;30191;50.908;6.962;2024-02-26T06:04:26;1.77;;;0.85;;
44486;SDS011;30191;50.908;6.962;2024-02-26T06:06:57;1.00;;;0.70;;
44486;SDS011;30191;50.908;6.962;2024-02-26T06:09:28;1.98;;;0.70;;
44486;SDS011;30191;50.908;6.962;2024-02-26T06:12:07;1.88;;;0.80;;
44486;SDS011;30191;50.908;6.962;2024-02-26T06:14:35;0.73;;;0.55;;
44486;SDS011;30191;50.908;6.962;2024-02-26T06:17:04;1.73;;;0.90;;
44486;SDS011;30191;50.908;6.962;2024-02-26T06:19:32;1.70;;;0.80;;
44486;SDS011;30191;50.908;6.962;2024-02-26T06:22:07;1.10;;;0.77;;
44486;SDS011;30191;50.908;6.962;2024-02-26T06:24:36;2.13;;;0.70;;
44486;SDS011;30191;50.908;6.962;2024-02-26T06:27:02;1.20;;;0.73;;
44486;SDS011;30191;50.908;6.962;2024-02-26T06:29:33;1.85;;;1.00;;
44486;SDS011;30191;50.908;6.962;2024-02-26T06:32:02;3.72;;;0.80;;
44486;SDS011;30191;50.908;6.962;2024-02-26T06:34:34;1.13;;;0.77;;
44486;SDS011;30191;50.908;6.962;2024-02-26T06:37:11;1.65;;;0.77;;
44486;SDS011;30191;50.908;6.962;2024-02-26T06:39:57;0.82;;;0.80;;
44486;SDS011;30191;50.908;6.962;2024-02-26T06:42:38;2.30;;;1.13;;
44486;SDS011;30191;50.908;6.962;2024-02-26T06:45:08;1.33;;;1.10;;
44486;SDS011;30191;50.908;6.962;2024-02-26T06:47:37;1.23;;;0.88;;
44486;SDS011;30191;50.908;6.962;2024-02-26T06:50:08;1.67;;;0.93;;
44486;SDS011;30191;50.908;6.962;2024-02-26T06:52:44;2.67;;;0.90;;
44486;SDS011;30191;50.908;6.962;2024-02-26T06:55:16;3.60;;;1.00;;
44486;SDS011;30191;50.908;6.962;2024-02-26T06:57:44;2.55;;;0.90;;
44486;SDS011;30191;50.908;6.962;2024-02-26T07:00:19;2.30;;;0.93;;
44486;SDS011;30191;50.908;6.962;2024-02-26T07:02:49;2.42;;;1.20;;
44486;SDS011;30191;50.908;6.962;2024-02-26T07:05:29;2.20;;;0.93;;
44486;SDS011;30191;50.908;6.962;2024-02-26T07:07:59;1.20;;;0.90;;
44486;SDS011;30191;50.908;6.962;2024-02-26T07:10:25;3.30;;;1.10;;
44486;SDS011;30191;50.908;6.962;2024-02-26T07:12:59;2.35;;;1.10;;
44486;SDS011;30191;50.908;6.962;2024-02-26T07:15:31;1.40;;;1.00;;
44486;SDS011;30191;50.908;6.962;2024-02-26T07:18:08;2.03;;;1.02;;
44486;SDS011;30191;50.908;6.962;2024-02-26T07:20:35;1.17;;;1.00;;
44486;SDS011;30191;50.908;6.962;2024-02-26T07:23:07;2.85;;;1.00;;
44486;SDS011;30191;50.908;6.962;2024-02-26T07:25:38;2.13;;;1.10;;
44486;SDS011;30191;50.908;6.962;2024-02-26T07:28:07;2.13;;;1.27;;
44486;SDS011;30191;50.908;6.962;2024-02-26T07:30:33;1.50;;;1.00;;
44486;SDS011;30191;50.908;6.962;2024-02-26T07:32:58;1.88;;;1.17;;
44486;SDS011;30191;50.908;6.962;2024-02-26T07:35:24;1.80;;;1.10;;
44486;SDS011;30191;50.908;6.962;2024-02-26T07:38:20;1.52;;;1.10;;
44486;SDS011;30191;50.908;6.962;2024-02-26T07:41:01;1.73;;;0.90;;
44486;SDS011;30191;50.908;6.962;2024-02-26T07:43:36;2.60;;;1.00;;
44486;SDS011;30191;50.908;6.962;2024-02-26T07:46:25;1.30;;;0.90;;
44486;SDS011;30191;50.908;6.962;2024-02-26T07:48:59;2.92;;;1.10;;
44486;SDS011;30191;50.908;6.962;2024-02-26T07:51:36;3.28;;;1.00;;
44486;SDS011;30191;50.908;6.962;2024-02-26T07:54:02;2.22;;;1.10;;
44486;SDS011;30191;50.908;6.962;2024-02-26T07:56:41;1.98;;;1.02;;
44486;SDS011;30191;50.908;6.962;2024-02-26T08:04:40;3.28;;;1.20;;
44486;SDS011;30191;50.908;6.962;2024-02-26T08:10:00;1.77;;;1.10;;
44486;SDS011;30191;50.908;6.962;2024-02-26T08:12:26;1.67;;;1.00;;
44486;SDS011;30191;50.908;6.962;2024-02-26T08:15:12;1.65;;;1.20;;
44486;SDS011;30191;50.908;6.962;2024-02-26T08:17:38;1.58;;;1.13;;
44486;SDS011;30191;50.908;6.962;2024-02-26T08:20:04;2.70;;;1.00;;
44486;SDS011;30191;50.908;6.962;2024-02-26T08:22:30;2.85;;;1.00;;
44486;SDS011;30191;50.908;6.962;2024-02-26T08:25:25;1.55;;;1.08;;
44486;SDS011;30191;50.908;6.962;2024-02-26T08:27:53;1.52;;;1.00;;
44486;SDS011;30191;50.908;6.962;2024-02-26T08:30:22;1.50;;;1.00;;
44486;SDS011;30191;50.908;6.962;2024-02-26T08:32:59;1.90;;;0.90;;
44486;SDS011;30191;50.908;6.962;2024-02-26T08:35:28;4.82;;;1.45;;
44486;SDS011;30191;50.908;6.962;2024-02-26T08:37:59;2.83;;;1.20;;
44486;SDS011;30191;50.908;6.962;2024-02-26T08:40:33;1.88;;;1.02;;
44486;SDS011;30191;50.908;6.962;2024-02-26T08:43:08;1.15;;;0.90;;
44486;SDS011;30191;50.908;6.962;2024-02-26T08:45:46;2.95;;;1.20;;
44486;SDS011;30191;50.908;6.962;2024-02-26T08:48:15;2.85;;;1.20;;
44486;SDS011;30191;50.908;6.962;2024-02-26T08:51:09;4.15;;;1.83;;
44486;SDS011;30191;50.908;6.962;2024-02-26T08:53:43;3.35;;;1.63;;
44486;SDS011;30191;50.908;6.962;2024-02-26T08:56:11;6.13;;;2.97;;
44486;SDS011;30191;50.908;6.962;2024-02-26T08:58:41;4.10;;;2.00;;
44486;SDS011;30191;50.908;6.962;2024-02-26T09:01:18;3.05;;;1.80;;
44486;SDS011;30191;50.908;6.962;2024-02-26T09:03:55;3.55;;;1.98;;
44486;SDS011;30191;50.908;6.962;2024-02-26T09:06:27;3.20;;;2.35;;
44486;SDS011;30191;50.908;6.962;2024-02-26T09:08:53;3.28;;;1.90;;
44486;SDS011;30191;50.908;6.962;2024-02-26T09:11:30;5.03;;;1.98;;
44486;SDS011;30191;50.908;6.962;2024-02-26T09:13:56;3.30;;;1.33;;
44486;SDS011;30191;50.908;6.962;2024-02-26T09:16:22;3.80;;;1.40;;
44486;SDS011;30191;50.908;6.962;2024-02-26T09:18:50;4.07;;;1.20;;
44486;SDS011;30191;50.908;6.962;2024-02-26T09:21:22;1.63;;;1.17;;
44486;SDS011;30191;50.908;6.962;2024-02-26T09:23:51;3.35;;;1.95;;
44486;SDS011;30191;50.908;6.962;2024-02-26T09:26:24;2.58;;;1.55;;
44486;SDS011;30191;50.908;6.962;2024-02-26T09:29:00;3.05;;;1.38;;
44486;SDS011;30191;50.908;6.962;2024-02-26T09:31:37;1.77;;;1.10;;
44486;SDS011;30191;50.908;6.962;2024-02-26T09:34:06;2.92;;;1.30;;
44486;SDS011;30191;50.908;6.962;2024-02-26T09:36:35;3.53;;;1.70;;
44486;SDS011;30191;50.908;6.962;2024-02-26T09:39:12;2.97;;;1.30;;
44486;SDS011;30191;50.908;6.962;2024-02-26T09:41:49;2.88;;;1.70;;
44486;SDS011;30191;50.908;6.962;2024-02-26T09:44:22;2.15;;;1.25;;
44486;SDS011;30191;50.908;6.962;2024-02-26T09:46:49;3.45;;;1.40;;
44486;SDS011;30191;50.908;6.962;2024-02-26T09:49:28;2.72;;;1.73;;
44486;SDS011;30191;50.908;6.962;2024-02-26T09:51:56;2.03;;;1.48;;
44486;SDS011;30191;50.908;6.962;2024-02-26T09:54:24;3.65;;;1.90;;
44486;SDS011;30191;50.908;6.962;2024-02-26T09:57:04;3.08;;;1.50;;
44486;SDS011;30191;50.908;6.962;2024-02-26T09:59:53;2.22;;;1.20;;
44486;SDS011;30191;50.908;6.962;2024-02-26T10:02:42;2.30;;;1.38;;
44486;SDS011;30191;50.908;6.962;2024-02-26T10:05:12;3.92;;;2.13;;
44486;SDS011;30191;50.908;6.962;2024-02-26T10:07:46;4.88;;;1.80;;
44486;SDS011;30191;50.908;6.962;2024-02-26T10:10:17;2.25;;;1.13;;
44486;SDS011;30191;50.908;6.962;2024-02-26T10:12:59;1.50;;;1.38;;
44486;SDS011;30191;50.908;6.962;2024-02-26T10:15:45;4.07;;;1.85;;
44486;SDS011;30191;50.908;6.962;2024-02-26T10:18:23;2.58;;;1.60;;
44486;SDS011;30191;50.908;6.962;2024-02-26T10:21:18;3.05;;;1.80;;
44486;SDS011;30191;50.908;6.962;2024-02-26T10:24:13;3.17;;;1.80;;
44486;SDS011;30191;50.908;6.962;2024-02-26T10:26:45;2.83;;;1.60;;
44486;SDS011;30191;50.908;6.962;2024-02-26T10:29:19;2.67;;;1.35;;
44486;SDS011;30191;50.908;6.962;2024-02-26T10:31:57;3.65;;;1.40;;
44486;SDS011;30191;50.908;6.962;2024-02-26T10:34:22;1.63;;;1.45;;
44486;SDS011;30191;50.908;6.962;2024-02-26T10:36:54;1.85;;;1.48;;
44486;SDS011;30191;50.908;6.962;2024-02-26T10:42:35;1.67;;;1.27;;
44486;SDS011;30191;50.908;6.962;2024-02-26T10:45:10;3.65;;;1.90;;
44486;SDS011;30191;50.908;6.962;2024-02-26T10:47:41;1.75;;;1.45;;
44486;SDS011;30191;50.908;6.962;2024-02-26T10:50:15;2.30;;;1.50;;
44486;SDS011;30191;50.908;6.962;2024-02-26T10:52:52;1.58;;;1.48;;
44486;SDS011;30191;50.908;6.962;2024-02-26T10:55:28;1.80;;;1.40;;
44486;SDS011;30191;50.908;6.962;2024-02-26T10:58:00;2.85;;;1.23;;
44486;SDS011;30191;50.908;6.962;2024-02-26T11:00:52;3.70;;;1.50;;
44486;SDS011;30191;50.908;6.962;2024-02-26T11:03:25;3.15;;;1.67;;
44486;SDS011;30191;50.908;6.962;2024-02-26T11:06:11;2.33;;;1.85;;
44486;SDS011;30191;50.908;6.962;2024-02-26T11:08:47;7.75;;;5.47;;
44486;SDS011;30191;50.908;6.962;2024-02-26T11:11:28;11.80;;;6.68;;
44486;SDS011;30191;50.908;6.962;2024-02-26T11:14:21;5.85;;;3.80;;
44486;SDS011;30191;50.908;6.962;2024-02-26T11:16:54;3.08;;;1.95;;
44486;SDS011;30191;50.908;6.962;2024-02-26T11:19:29;2.45;;;1.80;;
44486;SDS011;30191;50.908;6.962;2024-02-26T11:21:59;3.88;;;2.30;;
44486;SDS011;30191;50.908;6.962;2024-02-26T11:24:33;3.20;;;1.60;;
44486;SDS011;30191;50.908;6.962;2024-02-26T11:27:10;2.03;;;1.45;;
44486;SDS011;30191;50.908;6.962;2024-02-26T11:30:02;5.90;;;2.10;;
44486;SDS011;30191;50.908;6.962;2024-02-26T11:32:30;1.92;;;1.60;;
44486;SDS011;30191;50.908;6.962;2024-02-26T11:35:00;2.45;;;1.73;;
44486;SDS011;30191;50.908;6.962;2024-02-26T11:37:38;2.28;;;1.40;;
44486;SDS011;30191;50.908;6.962;2024-02-26T11:40:16;2.35;;;1.95;;
44486;SDS011;30191;50.908;6.962;2024-02-26T11:42:54;2.22;;;1.48;;
44486;SDS011;30191;50.908;6.962;2024-02-26T11:48:35;2.20;;;1.45;;
44486;SDS011;30191;50.908;6.962;2024-02-26T11:51:07;2.70;;;1.70;;
44486;SDS011;30191;50.908;6.962;2024-02-26T11:53:53;3.95;;;1.50;;
44486;SDS011;30191;50.908;6.962;2024-02-26T11:56:22;2.90;;;2.00;;
44486;SDS011;30191;50.908;6.962;2024-02-26T11:59:03;2.10;;;1.67;;
44486;SDS011;30191;50.908;6.962;2024-02-26T12:04:21;3.70;;;1.98;;
44486;SDS011;30191;50.908;6.962;2024-02-26T12:07:00;4.18;;;2.20;;
44486;SDS011;30191;50.908;6.962;2024-02-26T12:12:02;4.18;;;1.90;;
44486;SDS011;30191;50.908;6.962;2024-02-26T12:14:52;3.97;;;1.55;;
44486;SDS011;30191;50.908;6.962;2024-02-26T12:17:19;3.95;;;1.80;;
44486;SDS011;30191;50.908;6.962;2024-02-26T12:20:05;2.17;;;1.73;;
44486;SDS011;30191;50.908;6.962;2024-02-26T12:22:56;2.28;;;1.60;;
44486;SDS011;30191;50.908;6.962;2024-02-26T12:25:47;4.55;;;1.83;;
44486;SDS011;30191;50.908;6.962;2024-02-26T12:28:30;2.60;;;1.65;;
44486;SDS011;30191;50.908;6.962;2024-02-26T12:30:58;2.75;;;2.00;;
44486;SDS011;30191;50.908;6.962;2024-02-26T12:33:34;5.30;;;1.90;;
44486;SDS011;30191;50.908;6.962;2024-02-26T12:36:06;2.63;;;1.90;;
44486;SDS011;30191;50.908;6.962;2024-02-26T12:38:40;2.00;;;1.58;;
44486;SDS011;30191;50.908;6.962;2024-02-26T12:41:12;2.17;;;1.80;;
44486;SDS011;30191;50.908;6.962;2024-02-26T12:43:43;2.38;;;1.70;;
44486;SDS011;30191;50.908;6.962;2024-02-26T12:46:29;4.20;;;2.20;;
44486;SDS011;30191;50.908;6.962;2024-02-26T12:49:06;2.55;;;1.90;;
44486;SDS011;30191;50.908;6.962;2024-02-26T12:54:43;4.40;;;2.30;;
44486;SDS011;30191;50.908;6.962;2024-02-26T12:57:21;2.75;;;1.88;;
44486;SDS011;30191;50.908;6.962;2024-02-26T13:00:07;5.78;;;2.00;;
44486;SDS011;30191;50.908;6.962;2024-02-26T13:02:55;2.40;;;1.85;;
44486;SDS011;30191;50.908;6.962;2024-02-26T13:05:22;3.83;;;2.30;;
44486;SDS011;30191;50.908;6.962;2024-02-26T13:10:59;2.75;;;1.88;;
44486;SDS011;30191;50.908;6.962;2024-02-26T13:13:36;2.03;;;1.80;;
44486;SDS011;30191;50.908;6.962;2024-02-26T13:16:05;2.22;;;1.88;;
44486;SDS011;30191;50.908;6.962;2024-02-26T13:21:42;2.20;;;2.00;;
44486;SDS011;30191;50.908;6.962;2024-02-26T13:24:34;1.85;;;1.67;;
44486;SDS011;30191;50.908;6.962;2024-02-26T13:27:09;3.05;;;2.00;;
44486;SDS011;30191;50.908;6.962;2024-02-26T13:29:37;2.53;;;1.92;;
44486;SDS011;30191;50.908;6.962;2024-02-26T13:32:03;3.30;;;2.17;;
44486;SDS011;30191;50.908;6.962;2024-02-26T13:34:29;3.47;;;2.00;;
44486;SDS011;30191;50.908;6.962;2024-02-26T13:36:55;3.53;;;2.15;;
44486;SDS011;30191;50.908;6.962;2024-02-26T13:39:25;3.05;;;2.13;;
44486;SDS011;30191;50.908;6.962;2024-02-26T13:41:52;3.92;;;2.20;;
44486;SDS011;30191;50.908;6.962;2024-02-26T13:44:19;3.53;;;2.05;;
44486;SDS011;30191;50.908;6.962;2024-02-26T13:46:45;2.85;;;2.20;;
44486;SDS011;30191;50.908;6.962;2024-02-26T13:49:14;2.42;;;2.22;;
44486;SDS011;30191;50.908;6.962;2024-02-26T13:51:40;4.32;;;2.20;;
44486;SDS011;30191;50.908;6.962;2024-02-26T13:54:06;3.35;;;2.47;;
44486;SDS011;30191;50.908;6.962;2024-02-26T13:56:32;2.35;;;2.05;;
44486;SDS011;30191;50.908;6.962;2024-02-26T13:58:59;3.78;;;2.22;;
44486;SDS011;30191;50.908;6.962;2024-02-26T14:01:25;4.10;;;2.42;;
44486;SDS011;30191;50.908;6.962;2024-02-26T14:03:50;3.53;;;2.15;;
44486;SDS011;30191;50.908;6.962;2024-02-26T14:06:20;3.08;;;2.50;;
44486;SDS011;30191;50.908;6.962;2024-02-26T14:08:45;3.03;;;2.33;;
44486;SDS011;30191;50.908;6.962;2024-02-26T14:11:11;3.13;;;2.20;;
44486;SDS011;30191;50.908;6.962;2024-02-26T14:13:37;3.67;;;2.50;;
44486;SDS011;30191;50.908;6.962;2024-02-26T14:16:02;4.60;;;3.08;;
44486;SDS011;30191;50.908;6.962;2024-02-26T14:18:28;4.25;;;2.70;;
44486;SDS011;30191;50.908;6.962;2024-02-26T14:20:54;3.15;;;2.75;;
44486;SDS011;30191;50.908;6.962;2024-02-26T14:23:20;3.47;;;2.83;;
44486;SDS011;30191;50.908;6.962;2024-02-26T14:25:45;4.00;;;3.00;;
44486;SDS011;30191;50.908;6.962;2024-02-26T14:28:11;4.10;;;2.85;;
44486;SDS011;30191;50.908;6.962;2024-02-26T14:30:36;3.47;;;3.17;;
44486;SDS011;30191;50.908;6.962;2024-02-26T14:33:02;5.18;;;3.28;;
44486;SDS011;30191;50.908;6.962;2024-02-26T14:35:28;5.65;;;3.10;;
44486;SDS011;30191;50.908;6.962;2024-02-26T14:37:53;3.75;;;2.92;;
44486;SDS011;30191;50.908;6.962;2024-02-26T14:40:20;4.20;;;3.28;;
44486;SDS011;30191;50.908;6.962;2024-02-26T14:42:45;3.72;;;3.10;;
44486;SDS011;30191;50.908;6.962;2024-02-26T14:45:11;5.85;;;3.25;;
44486;SDS011;30191;50.908;6.962;2024-02-26T14:47:37;4.70;;;3.65;;
44486;SDS011;30191;50.908;6.962;2024-02-26T14:50:03;4.82;;;4.03;;
44486;SDS011;30191;50.908;6.962;2024-02-26T14:52:29;5.45;;;3.58;;
44486;SDS011;30191;50.908;6.962;2024-02-26T14:54:55;4.13;;;3.28;;
44486;SDS011;30191;50.908;6.962;2024-02-26T14:57:22;4.90;;;4.00;;
44486;SDS011;30191;50.908;6.962;2024-02-26T14:59:49;5.53;;;3.65;;
44486;SDS011;30191;50.908;6.962;2024-02-26T15:02:15;5.50;;;3.55;;
44486;SDS011;30191;50.908;6.962;2024-02-26T15:04:41;6.15;;;3.70;;
44486;SDS011;30191;50.908;6.962;2024-02-26T15:07:08;4.43;;;3.80;;
44486;SDS011;30191;50.908;6.962;2024-02-26T15:09:33;6.25;;;3.65;;
44486;SDS011;30191;50.908;6.962;2024-02-26T15:11:59;6.03;;;4.22;;
44486;SDS011;30191;50.908;6.962;2024-02-26T15:14:25;6.35;;;4.45;;
44486;SDS011;30191;50.908;6.962;2024-02-26T15:16:51;7.60;;;4.45;;
44486;SDS011;30191;50.908;6.962;2024-02-26T15:19:18;5.35;;;4.15;;
44486;SDS011;30191;50.908;6.962;2024-02-26T15:21:44;7.28;;;4.45;;
44486;SDS011;30191;50.908;6.962;2024-02-26T15:24:10;6.15;;;4.75;;
44486;SDS011;30191;50.908;6.962;2024-02-26T15:29:06;6.18;;;4.78;;
44486;SDS011;30191;50.908;6.962;2024-02-26T15:31:35;6.18;;;4.50;;
44486;SDS011;30191;50.908;6.962;2024-02-26T15:34:01;5.85;;;5.25;;
44486;SDS011;30191;50.908;6.962;2024-02-26T15:36:28;5.97;;;5.07;;
44486;SDS011;30191;50.908;6.962;2024-02-26T15:38:53;5.70;;;4.63;;
44486;SDS011;30191;50.908;6.962;2024-02-26T15:41:19;6.50;;;4.80;;
44486;SDS011;30191;50.908;6.962;2024-02-26T15:43:45;6.05;;;5.18;;
44486;SDS011;30191;50.908;6.962;2024-02-26T15:46:11;5.80;;;5.20;;
44486;SDS011;30191;50.908;6.962;2024-02-26T15:48:36;6.57;;;5.65;;
44486;SDS011;30191;50.908;6.962;2024-02-26T15:51:03;6.10;;;5.32;;
44486;SDS011;30191;50.908;6.962;2024-02-26T15:53:28;5.85;;;5.25;;
44486;SDS011;30191;50.908;6.962;2024-02-26T15:55:54;6.55;;;5.80;;
44486;SDS011;30191;50.908;6.962;2024-02-26T15:58:20;9.02;;;5.78;;
44486;SDS011;30191;50.908;6.962;2024-02-26T16:00:45;7.20;;;6.30;;
44486;SDS011;30191;50.908;6.962;2024-02-26T16:03:12;11.70;;;6.88;;